createdAt,value
2022-10-18T00:01:15.206Z,19.60
2022-10-18T00:06:16.996Z,19.60
2022-10-18T00:08:45.479Z,19.50
2022-10-18T00:11:14.005Z,19.50
2022-10-18T00:13:42.586Z,19.50
2022-10-18T00:16:17.047Z,19.50
2022-10-18T00:18:46.477Z,19.40
2022-10-18T00:21:20.864Z,19.50
2022-10-18T00:23:50.648Z,19.30
2022-10-18T00:26:28.019Z,19.40
2022-10-18T00:29:00.595Z,19.30
2022-10-18T00:31:34.117Z,19.40
2022-10-18T00:34:08.326Z,19.30
2022-10-18T00:36:37.070Z,19.30
2022-10-18T00:39:07.568Z,19.30
2022-10-18T00:41:38.838Z,19.20
2022-10-18T00:44:11.991Z,19.20
2022-10-18T00:46:46.311Z,19.20
2022-10-18T00:49:23.135Z,19.10
2022-10-18T00:52:02.752Z,19.00
2022-10-18T00:54:34.136Z,18.90
2022-10-18T00:57:03.442Z,18.80
2022-10-18T00:59:31.859Z,18.80
2022-10-18T01:02:00.467Z,18.70
2022-10-18T01:04:28.910Z,18.50
2022-10-18T01:07:22.070Z,18.40
2022-10-18T01:10:10.919Z,18.20
2022-10-18T01:13:04.997Z,18.20
2022-10-18T01:15:42.950Z,18.30
2022-10-18T01:18:23.837Z,18.20
2022-10-18T01:21:26.113Z,18.00
2022-10-18T01:24:26.283Z,17.90
2022-10-18T01:27:30.128Z,17.90
2022-10-18T01:30:04.990Z,17.60
2022-10-18T01:32:41.923Z,17.50
2022-10-18T01:35:17.632Z,17.40
2022-10-18T01:37:48.501Z,17.20
2022-10-18T01:40:20.548Z,17.10
2022-10-18T01:42:50.564Z,16.90
2022-10-18T01:45:22.179Z,16.90
2022-10-18T01:47:52.052Z,16.70
2022-10-18T01:50:34.775Z,16.70
2022-10-18T01:53:04.125Z,16.70
2022-10-18T01:55:46.665Z,16.70
2022-10-18T01:58:39.529Z,16.70
2022-10-18T02:01:19.378Z,16.60
2022-10-18T02:03:52.705Z,16.30
2022-10-18T02:06:36.625Z,16.20
2022-10-18T02:09:39.403Z,16.10
2022-10-18T02:12:12.983Z,16.10
2022-10-18T02:14:44.185Z,16.00
2022-10-18T02:17:15.882Z,16.00
2022-10-18T02:19:56.884Z,16.10
2022-10-18T02:22:32.822Z,16.10
2022-10-18T02:25:06.590Z,16.10
2022-10-18T02:27:35.112Z,16.00
2022-10-18T02:30:03.645Z,15.90
2022-10-18T02:32:48.080Z,15.80
2022-10-18T02:35:25.453Z,15.80
2022-10-18T02:37:56.212Z,15.70
2022-10-18T02:40:25.490Z,15.50
2022-10-18T02:42:59.213Z,15.50
2022-10-18T02:45:28.238Z,15.50
2022-10-18T02:47:56.611Z,15.50
2022-10-18T02:50:25.133Z,15.50
2022-10-18T02:52:53.528Z,15.30
2022-10-18T02:55:22.040Z,15.20
2022-10-18T02:57:50.534Z,15.30
2022-10-18T03:00:19.154Z,15.30
2022-10-18T03:02:47.577Z,15.30
2022-10-18T03:05:16.086Z,15.20
2022-10-18T03:07:44.486Z,15.10
2022-10-18T03:10:12.918Z,15.10
2022-10-18T03:12:41.277Z,15.10
2022-10-18T03:15:09.946Z,15.10
2022-10-18T03:17:38.433Z,15.00
2022-10-18T03:20:07.814Z,15.00
2022-10-18T03:22:36.382Z,14.90
2022-10-18T03:25:04.925Z,14.80
2022-10-18T03:27:33.636Z,14.80
2022-10-18T03:30:02.680Z,14.70
2022-10-18T03:32:31.379Z,14.70
2022-10-18T03:35:00.033Z,14.70
2022-10-18T03:37:28.427Z,14.70
2022-10-18T03:39:56.933Z,14.70
2022-10-18T03:42:25.396Z,14.60
2022-10-18T03:44:53.842Z,14.70
2022-10-18T03:47:22.363Z,14.60
2022-10-18T03:49:53.237Z,14.60
2022-10-18T03:52:24.920Z,14.60
2022-10-18T03:54:53.521Z,14.50
2022-10-18T03:57:22.035Z,14.50
2022-10-18T03:59:50.484Z,14.50
2022-10-18T04:02:19.108Z,14.40
2022-10-18T04:04:47.457Z,14.50
2022-10-18T04:07:15.934Z,14.40
2022-10-18T04:09:44.408Z,14.40
2022-10-18T04:12:12.791Z,14.40
2022-10-18T04:14:41.208Z,14.30
2022-10-18T04:17:10.095Z,14.20
2022-10-18T04:19:38.520Z,14.10
2022-10-18T04:22:06.879Z,14.10
2022-10-18T04:24:35.276Z,14.00
2022-10-18T04:27:03.614Z,14.00
2022-10-18T04:29:31.988Z,14.00
2022-10-18T04:32:01.406Z,14.00
2022-10-18T04:34:29.929Z,13.90
2022-10-18T04:36:58.297Z,13.90
2022-10-18T04:39:26.749Z,13.90
2022-10-18T04:41:55.135Z,13.90
2022-10-18T04:44:23.922Z,13.80
2022-10-18T04:46:52.312Z,13.80
2022-10-18T04:49:20.893Z,13.70
2022-10-18T04:51:49.254Z,13.80
2022-10-18T04:54:17.864Z,13.80
2022-10-18T04:56:46.227Z,13.70
2022-10-18T04:59:14.576Z,13.60
2022-10-18T05:01:43.075Z,13.60
2022-10-18T05:04:11.548Z,13.50
2022-10-18T05:06:39.994Z,13.40
2022-10-18T05:09:08.517Z,13.30
2022-10-18T05:11:36.946Z,13.30
2022-10-18T05:14:06.215Z,13.30
2022-10-18T05:16:34.845Z,13.40
2022-10-18T05:19:04.494Z,13.30
2022-10-18T05:21:33.019Z,13.30
2022-10-18T05:24:01.478Z,13.30
2022-10-18T05:26:29.897Z,13.20
2022-10-18T05:28:58.561Z,13.20
2022-10-18T05:31:27.331Z,13.20
2022-10-18T05:33:55.895Z,13.10
2022-10-18T05:36:26.398Z,13.10
2022-10-18T05:38:54.964Z,13.20
2022-10-18T05:41:23.655Z,13.10
2022-10-18T05:43:52.167Z,13.10
2022-10-18T05:46:20.689Z,13.20
2022-10-18T05:48:53.282Z,13.10
2022-10-18T05:51:21.816Z,13.00
2022-10-18T05:53:50.184Z,13.00
2022-10-18T05:56:18.626Z,13.00
2022-10-18T05:58:52.230Z,12.90
2022-10-18T06:01:20.832Z,12.90
2022-10-18T06:03:49.288Z,12.90
2022-10-18T06:06:18.244Z,12.90
2022-10-18T06:08:49.852Z,12.90
2022-10-18T06:11:20.665Z,12.80
2022-10-18T06:13:51.013Z,12.70
2022-10-18T06:16:23.158Z,12.70
2022-10-18T06:18:54.728Z,12.70
2022-10-18T06:21:24.529Z,12.70
2022-10-18T06:23:54.545Z,12.70
2022-10-18T06:26:23.566Z,12.80
2022-10-18T06:28:52.302Z,12.70
2022-10-18T06:31:22.168Z,12.80
2022-10-18T06:33:50.910Z,12.80
2022-10-18T06:36:22.878Z,12.80
2022-10-18T06:38:52.082Z,12.80
2022-10-18T06:41:21.206Z,12.70
2022-10-18T06:43:54.463Z,12.70
2022-10-18T06:46:22.843Z,12.80
2022-10-18T06:48:51.319Z,12.90
2022-10-18T06:51:19.853Z,12.80
2022-10-18T06:53:59.729Z,12.80
2022-10-18T06:56:37.038Z,12.70
2022-10-18T06:59:05.923Z,12.70
2022-10-18T07:01:34.559Z,12.60
2022-10-18T07:04:03.580Z,12.70
2022-10-18T07:06:32.087Z,12.70
2022-10-18T07:09:01.017Z,12.60
2022-10-18T07:11:29.674Z,12.60
2022-10-18T07:14:03.874Z,12.50
2022-10-18T07:16:33.462Z,12.50
2022-10-18T07:19:02.070Z,12.50
2022-10-18T07:21:30.644Z,12.60
2022-10-18T07:23:59.135Z,12.60
2022-10-18T07:26:32.764Z,12.60
2022-10-18T07:29:06.314Z,12.60
2022-10-18T07:31:34.954Z,12.60
2022-10-18T07:34:06.475Z,12.40
2022-10-18T07:36:35.390Z,12.30
2022-10-18T07:39:04.094Z,12.30
2022-10-18T07:41:35.535Z,12.30
2022-10-18T07:44:05.482Z,12.30
2022-10-18T07:46:34.102Z,12.40
2022-10-18T07:49:03.134Z,12.40
2022-10-18T07:51:33.673Z,12.50
2022-10-18T07:54:02.096Z,12.50
2022-10-18T07:56:30.584Z,12.40
2022-10-18T07:58:59.103Z,12.40
2022-10-18T08:01:27.686Z,12.40
2022-10-18T08:03:56.189Z,12.40
2022-10-18T08:06:25.277Z,12.40
2022-10-18T08:08:53.794Z,12.40
2022-10-18T08:11:25.160Z,12.30
2022-10-18T08:13:54.785Z,12.20
2022-10-18T08:16:29.003Z,12.30
2022-10-18T08:18:59.769Z,12.30
2022-10-18T08:21:28.689Z,12.20
2022-10-18T08:23:57.225Z,12.10
2022-10-18T08:26:25.950Z,12.10
2022-10-18T08:29:10.167Z,12.00
2022-10-18T08:31:39.015Z,12.00
2022-10-18T08:34:07.478Z,11.90
2022-10-18T08:36:35.976Z,11.90
2022-10-18T08:39:04.737Z,11.80
2022-10-18T08:41:54.729Z,11.90
2022-10-18T08:44:34.085Z,11.80
2022-10-18T08:47:07.920Z,11.80
2022-10-18T08:49:46.564Z,11.70
2022-10-18T08:52:49.049Z,11.70
2022-10-18T08:55:30.010Z,11.70
2022-10-18T08:57:59.462Z,11.70
2022-10-18T09:00:35.364Z,11.70
2022-10-18T09:03:25.367Z,11.70
2022-10-18T09:06:02.337Z,11.70
2022-10-18T09:09:09.559Z,11.60
2022-10-18T09:12:16.514Z,11.60
2022-10-18T09:15:15.709Z,11.60
2022-10-18T09:17:51.434Z,11.60
2022-10-18T09:20:27.338Z,11.60
2022-10-18T09:23:16.987Z,11.60
2022-10-18T09:26:12.155Z,11.60
2022-10-18T09:28:46.316Z,11.50
2022-10-18T09:31:35.943Z,11.50
2022-10-18T09:34:12.686Z,11.50
2022-10-18T09:36:41.376Z,11.50
2022-10-18T09:39:21.014Z,11.50
2022-10-18T09:42:15.697Z,11.50
2022-10-18T09:45:00.396Z,11.50
2022-10-18T09:47:45.736Z,11.30
2022-10-18T09:50:47.086Z,11.40
2022-10-18T09:53:27.981Z,11.50
2022-10-18T09:56:10.616Z,11.40
2022-10-18T09:58:52.104Z,11.30
2022-10-18T10:01:24.490Z,11.20
2022-10-18T10:03:53.490Z,11.30
2022-10-18T10:06:35.440Z,11.20
2022-10-18T10:09:31.890Z,11.10
2022-10-18T10:12:00.511Z,11.10
2022-10-18T10:14:31.194Z,11.10
2022-10-18T10:17:04.232Z,11.10
2022-10-18T10:19:58.714Z,11.10
2022-10-18T10:22:39.620Z,11.10
2022-10-18T10:25:08.834Z,11.10
2022-10-18T10:27:47.572Z,11.20
2022-10-18T10:30:28.257Z,11.20
2022-10-18T10:32:58.040Z,11.20
2022-10-18T10:38:30.074Z,11.20
2022-10-18T10:40:59.215Z,11.30
2022-10-18T10:43:38.726Z,11.20
2022-10-18T10:46:14.925Z,11.30
2022-10-18T10:49:04.160Z,11.20
2022-10-18T10:51:42.910Z,11.10
2022-10-18T10:54:21.675Z,11.20
2022-10-18T10:57:13.206Z,11.30
2022-10-18T10:59:47.638Z,11.30
2022-10-18T11:02:18.985Z,11.30
2022-10-18T11:04:52.552Z,11.30
2022-10-18T11:07:36.529Z,11.30
2022-10-18T11:10:19.229Z,11.30
2022-10-18T11:13:23.950Z,11.40
2022-10-18T11:15:58.374Z,11.40
2022-10-18T11:18:38.541Z,11.40
2022-10-18T11:21:22.099Z,11.40
2022-10-18T11:23:50.697Z,11.50
2022-10-18T11:26:48.873Z,11.60
2022-10-18T11:29:42.929Z,11.70
2022-10-18T11:32:32.585Z,11.80
2022-10-18T11:35:23.880Z,11.90
2022-10-18T11:37:54.993Z,12.00
2022-10-18T11:40:32.439Z,12.10
2022-10-18T11:43:16.165Z,12.20
2022-10-18T11:46:09.080Z,12.30
2022-10-18T11:48:58.838Z,12.40
2022-10-18T11:52:07.206Z,12.50
2022-10-18T11:54:48.656Z,12.50
2022-10-18T11:57:44.014Z,12.50
2022-10-18T12:00:43.633Z,12.60
2022-10-18T12:03:33.700Z,12.60
2022-10-18T12:06:07.672Z,12.70
2022-10-18T12:08:53.899Z,12.70
2022-10-18T12:11:35.134Z,12.70
2022-10-18T12:14:24.134Z,12.80
2022-10-18T12:17:06.784Z,12.80
2022-10-18T12:19:43.635Z,12.90
2022-10-18T12:22:39.228Z,12.90
2022-10-18T12:25:15.856Z,12.90
2022-10-18T12:28:04.759Z,12.90
2022-10-18T12:30:58.996Z,13.10
2022-10-18T12:33:33.063Z,13.00
2022-10-18T12:36:04.213Z,13.00
2022-10-18T12:38:38.889Z,12.90
2022-10-18T12:41:07.776Z,12.70
2022-10-18T12:43:39.217Z,12.60
2022-10-18T12:46:13.598Z,12.80
2022-10-18T12:49:03.934Z,12.70
2022-10-18T12:51:32.667Z,12.70
2022-10-18T12:54:04.180Z,12.70
2022-10-18T12:56:42.554Z,12.70
2022-10-18T12:59:17.106Z,12.70
2022-10-18T13:01:54.723Z,12.60
2022-10-18T13:04:29.186Z,12.60
2022-10-18T13:07:06.411Z,12.50
2022-10-18T13:09:37.364Z,12.50
2022-10-18T13:12:11.620Z,12.50
2022-10-18T13:15:20.520Z,12.30
2022-10-18T13:18:24.350Z,12.40
2022-10-18T13:21:53.808Z,12.40
2022-10-18T13:24:40.856Z,12.40
2022-10-18T13:27:52.500Z,12.30
2022-10-18T13:30:43.092Z,12.40
2022-10-18T13:33:32.696Z,12.40
2022-10-18T13:36:26.131Z,12.40
2022-10-18T13:38:58.422Z,12.50
2022-10-18T13:41:43.088Z,12.70
2022-10-18T13:44:13.385Z,12.70
2022-10-18T13:46:41.674Z,12.60
2022-10-18T13:49:28.806Z,12.70
2022-10-18T13:52:12.443Z,12.70
2022-10-18T13:54:59.210Z,12.90
2022-10-18T13:57:42.851Z,12.90
2022-10-18T14:00:49.277Z,12.90
2022-10-18T14:06:38.094Z,12.70
2022-10-18T14:09:26.443Z,12.80
2022-10-18T14:12:28.675Z,12.70
2022-10-18T14:15:09.267Z,12.60
2022-10-18T14:17:50.682Z,12.50
2022-10-18T14:20:49.459Z,12.50
2022-10-18T14:23:34.103Z,12.50
2022-10-18T14:26:10.540Z,12.60
2022-10-18T14:28:58.599Z,12.60
2022-10-18T14:31:27.773Z,12.60
2022-10-18T14:33:59.018Z,12.60
2022-10-18T14:36:31.643Z,12.40
2022-10-18T14:39:03.334Z,12.40
2022-10-18T14:41:37.382Z,12.50
2022-10-18T14:44:20.209Z,12.60
2022-10-18T14:46:54.544Z,12.60
2022-10-18T14:49:23.674Z,12.70
2022-10-18T14:51:54.181Z,12.70
2022-10-18T14:57:20.906Z,12.80
2022-10-18T14:59:57.821Z,12.90
2022-10-18T15:02:28.011Z,12.90
2022-10-18T15:05:21.612Z,12.80
2022-10-18T15:07:51.769Z,12.90
2022-10-18T15:10:32.078Z,12.70
2022-10-18T15:13:09.625Z,12.60
2022-10-18T15:15:39.832Z,12.60
2022-10-18T15:18:09.202Z,12.60
2022-10-18T15:20:43.561Z,12.30
2022-10-18T15:23:24.925Z,12.50
2022-10-18T15:26:00.780Z,12.10
2022-10-18T15:28:40.257Z,11.90
2022-10-18T15:31:23.505Z,11.90
2022-10-18T15:33:52.274Z,12.00
2022-10-18T15:36:32.515Z,12.20
2022-10-18T15:39:33.366Z,12.40
2022-10-18T15:42:03.543Z,12.20
2022-10-18T15:44:52.070Z,12.20
2022-10-18T15:47:22.925Z,12.20
2022-10-18T15:49:57.438Z,12.40
2022-10-18T15:52:38.891Z,12.60
2022-10-18T15:55:30.911Z,12.60
2022-10-18T15:58:07.669Z,12.80
2022-10-18T16:00:36.061Z,12.80
2022-10-18T16:03:04.623Z,13.00
2022-10-18T16:05:33.013Z,13.10
2022-10-18T16:08:01.412Z,13.10
2022-10-18T16:10:30.200Z,13.20
2022-10-18T16:12:58.563Z,13.30
2022-10-18T16:15:27.013Z,13.30
2022-10-18T16:17:55.397Z,13.30
2022-10-18T16:20:25.681Z,13.00
2022-10-18T16:22:54.124Z,12.90
2022-10-18T16:25:22.610Z,13.10
2022-10-18T16:27:50.956Z,13.30
2022-10-18T16:30:23.601Z,13.40
2022-10-18T16:32:51.927Z,13.50
2022-10-18T16:35:20.290Z,13.80
2022-10-18T16:37:48.763Z,13.90
2022-10-18T16:40:25.832Z,13.80
2022-10-18T16:42:54.222Z,13.80
2022-10-18T16:45:22.757Z,13.80
2022-10-18T16:47:51.109Z,13.90
2022-10-18T16:50:22.707Z,14.00
2022-10-18T16:52:51.077Z,14.00
2022-10-18T16:55:25.694Z,13.90
2022-10-18T16:57:54.100Z,13.90
2022-10-18T17:00:25.594Z,13.90
2022-10-18T17:02:54.042Z,13.90
2022-10-18T17:05:23.933Z,14.00
2022-10-18T17:07:52.519Z,13.90
2022-10-18T17:10:25.124Z,13.80
2022-10-18T17:12:53.905Z,13.80
2022-10-18T17:15:22.261Z,14.20
2022-10-18T17:17:53.495Z,14.60
2022-10-18T17:20:26.866Z,14.70
2022-10-18T17:22:55.885Z,14.70
2022-10-18T17:25:24.270Z,14.80
2022-10-18T17:27:52.638Z,14.90
2022-10-18T17:30:21.094Z,15.00
2022-10-18T17:32:49.551Z,15.10
2022-10-18T17:35:18.054Z,15.40
2022-10-18T17:37:49.719Z,15.40
2022-10-18T17:40:18.306Z,15.30
2022-10-18T17:42:46.672Z,15.50
2022-10-18T17:45:15.164Z,15.60
2022-10-18T17:47:43.492Z,15.90
2022-10-18T17:50:11.912Z,15.80
2022-10-18T17:52:44.951Z,15.60
2022-10-18T17:55:14.325Z,15.70
2022-10-18T17:57:43.943Z,15.60
2022-10-18T18:00:13.826Z,15.50
2022-10-18T18:02:43.215Z,15.70
2022-10-18T18:05:13.384Z,15.90
2022-10-18T18:07:41.841Z,15.80
2022-10-18T18:10:11.717Z,15.70
2022-10-18T18:12:40.134Z,15.60
2022-10-18T18:15:09.539Z,15.60
2022-10-18T18:17:56.000Z,15.30
2022-10-18T18:20:25.493Z,15.50
2022-10-18T18:22:54.191Z,15.70
2022-10-18T18:25:22.563Z,15.80
2022-10-18T18:27:50.995Z,16.00
2022-10-18T18:30:19.491Z,16.00
2022-10-18T18:32:47.864Z,16.20
2022-10-18T18:35:16.375Z,16.20
2022-10-18T18:37:44.752Z,16.30
2022-10-18T18:40:13.196Z,16.10
2022-10-18T18:42:41.597Z,16.40
2022-10-18T18:45:10.109Z,16.40
2022-10-18T18:47:39.507Z,16.50
2022-10-18T18:50:08.448Z,16.50
2022-10-18T18:52:36.796Z,16.30
2022-10-18T18:55:05.574Z,16.60
2022-10-18T18:57:34.113Z,16.60
2022-10-18T19:00:02.738Z,16.40
2022-10-18T19:02:31.097Z,15.80
2022-10-18T19:04:59.504Z,16.00
2022-10-18T19:07:27.836Z,15.10
2022-10-18T19:09:57.377Z,15.30
2022-10-18T19:12:25.776Z,15.50
2022-10-18T19:14:54.112Z,15.60
2022-10-18T19:17:23.337Z,15.70
2022-10-18T19:19:51.810Z,15.50
2022-10-18T19:22:20.163Z,15.60
2022-10-18T19:24:48.509Z,15.50
2022-10-18T19:27:17.039Z,15.70
2022-10-18T19:29:46.838Z,15.90
2022-10-18T19:32:17.676Z,16.20
2022-10-18T19:34:46.122Z,16.40
2022-10-18T19:37:16.208Z,16.70
2022-10-18T19:39:44.783Z,16.90
2022-10-18T19:42:18.693Z,17.30
2022-10-18T19:44:51.118Z,17.50
2022-10-18T19:47:21.270Z,17.90
2022-10-18T19:49:49.621Z,17.90
2022-10-18T19:52:17.994Z,17.90
2022-10-18T19:54:46.489Z,17.90
2022-10-18T19:57:14.884Z,17.90
2022-10-18T19:59:43.239Z,17.70
2022-10-18T20:02:16.021Z,17.80
2022-10-18T20:04:44.591Z,17.10
2022-10-18T20:07:12.952Z,17.00
2022-10-18T20:09:41.404Z,17.00
2022-10-18T20:12:09.858Z,17.20
2022-10-18T20:14:38.186Z,17.20
2022-10-18T20:17:07.118Z,17.10
2022-10-18T20:19:35.531Z,17.20
2022-10-18T20:22:03.918Z,17.10
2022-10-18T20:24:32.334Z,17.20
2022-10-18T20:27:00.695Z,17.20
2022-10-18T20:29:29.122Z,17.20
2022-10-18T20:31:57.658Z,17.20
2022-10-18T20:34:26.909Z,16.90
2022-10-18T20:36:56.389Z,17.00
2022-10-18T20:39:25.041Z,17.10
2022-10-18T20:41:53.425Z,16.90
2022-10-18T20:44:23.374Z,16.90
2022-10-18T20:46:51.839Z,16.90
2022-10-18T20:49:20.330Z,16.90
2022-10-18T20:51:48.706Z,16.90
2022-10-18T20:54:17.130Z,17.10
2022-10-18T20:56:45.526Z,17.10
2022-10-18T20:59:14.622Z,17.20
2022-10-18T21:01:43.334Z,17.30
2022-10-18T21:04:12.071Z,17.50
2022-10-18T21:06:43.519Z,17.60
2022-10-18T21:09:15.345Z,17.70
2022-10-18T21:11:47.092Z,17.90
2022-10-18T21:14:17.798Z,17.70
2022-10-18T21:16:47.316Z,17.90
2022-10-18T21:19:21.661Z,18.10
2022-10-18T21:21:52.177Z,18.10
2022-10-18T21:24:22.174Z,18.30
2022-10-18T21:26:50.662Z,18.20
2022-10-18T21:29:22.296Z,18.40
2022-10-18T21:31:54.141Z,18.50
2022-10-18T21:34:23.017Z,18.40
2022-10-18T21:36:51.390Z,18.60
2022-10-18T21:41:55.867Z,18.50
2022-10-18T21:44:24.382Z,18.60
2022-10-18T21:46:52.816Z,18.50
2022-10-18T21:49:24.157Z,18.70
2022-10-18T21:51:52.577Z,18.70
2022-10-18T21:54:21.021Z,18.80
2022-10-18T21:56:49.414Z,18.60
2022-10-18T21:59:17.922Z,18.60
2022-10-18T22:01:46.647Z,18.80
2022-10-18T22:04:23.828Z,18.90
2022-10-18T22:06:52.601Z,19.00
2022-10-18T22:09:22.040Z,19.10
2022-10-18T22:11:53.287Z,19.20
2022-10-18T22:14:22.902Z,19.30
2022-10-18T22:16:51.847Z,19.40
2022-10-18T22:19:20.574Z,19.60
2022-10-18T22:21:49.226Z,19.70
2022-10-18T22:24:17.737Z,19.70
2022-10-18T22:26:47.313Z,19.70
2022-10-18T22:29:18.530Z,19.90
2022-10-18T22:31:52.875Z,19.60
2022-10-18T22:34:28.267Z,19.50
2022-10-18T22:36:57.167Z,19.40
2022-10-18T22:39:25.717Z,19.50
2022-10-18T22:41:57.085Z,19.50
2022-10-18T22:44:26.237Z,19.60
2022-10-18T22:46:54.601Z,19.70
2022-10-18T22:49:23.413Z,19.80
2022-10-18T22:51:52.088Z,19.70
2022-10-18T22:54:20.858Z,19.90
2022-10-18T22:56:49.356Z,19.90
2022-10-18T22:59:17.805Z,20.00
2022-10-18T23:01:46.219Z,20.00
2022-10-18T23:04:14.585Z,20.00
2022-10-18T23:06:43.272Z,19.90
2022-10-18T23:09:12.802Z,20.00
2022-10-18T23:11:41.147Z,20.10
2022-10-18T23:14:09.566Z,20.20
2022-10-18T23:16:38.062Z,20.20
2022-10-18T23:19:06.469Z,20.20
2022-10-18T23:21:35.497Z,20.20
2022-10-18T23:24:04.258Z,20.30
2022-10-18T23:26:32.922Z,20.30
2022-10-18T23:29:01.451Z,20.30
2022-10-18T23:31:32.961Z,20.30
2022-10-18T23:34:03.856Z,20.30
2022-10-18T23:36:33.530Z,20.30
2022-10-18T23:39:02.314Z,20.30
2022-10-18T23:41:30.954Z,20.30
2022-10-18T23:43:59.324Z,20.40
2022-10-18T23:46:27.717Z,20.40
2022-10-18T23:48:56.173Z,20.40
2022-10-18T23:51:24.597Z,20.30
2022-10-18T23:53:53.021Z,20.30
2022-10-18T23:56:21.509Z,20.40
2022-10-18T23:58:49.878Z,20.40
